Time;durP1;ratioP1;P1;durP2;ratioP2;P2;SDS_P1;SDS_P2;PMS_P1;PMS_P2;Temp;Humidity;BMP_temperature;BMP_pressure;BME280_temperature;BME280_humidity;BME280_pressure;Samples;Min_cycle;Max_cycle;Signal;HPM_P1;HPM_P2
2022/01/15 00:02:25;;;;;;;61.53;19.33;;;5.50;99.90;;;;;;4839333;29;20034;-76
2022/01/15 00:04:51;;;;;;;60.38;17.27;;;5.50;99.90;;;;;;4839607;29;20045;-75
2022/01/15 00:07:18;;;;;;;75.53;18.35;;;5.50;99.90;;;;;;4839755;29;20045;-75
2022/01/15 00:09:49;;;;;;;64.68;18.00;;;5.60;99.90;;;;;;4837357;29;20401;-75
2022/01/15 00:12:15;;;;;;;95.03;18.33;;;5.60;99.90;;;;;;4840124;29;20045;-77
2022/01/15 00:14:42;;;;;;;105.43;18.98;;;5.60;99.90;;;;;;4838738;29;20060;-77
2022/01/15 00:17:20;;;;;;;85.80;21.05;;;5.60;99.90;;;;;;4827921;29;20067;-77
2022/01/15 00:19:47;;;;;;;78.60;20.92;;;5.60;99.90;;;;;;4838949;29;20038;-75
2022/01/15 00:22:16;;;;;;;86.28;21.05;;;5.60;99.90;;;;;;4836463;29;20413;-75
2022/01/15 00:24:43;;;;;;;161.52;28.27;;;5.60;99.90;;;;;;4834726;29;20033;-77
2022/01/15 00:27:10;;;;;;;133.98;26.17;;;5.50;99.90;;;;;;4836611;29;20057;-75
2022/01/15 00:29:36;;;;;;;182.50;24.85;;;5.50;99.90;;;;;;4826503;29;20059;-75
2022/01/15 00:32:05;;;;;;;360.67;32.63;;;5.40;99.90;;;;;;4837718;29;20057;-75
2022/01/15 00:34:31;;;;;;;123.80;24.85;;;5.40;99.90;;;;;;4823238;29;20523;-75
2022/01/15 00:36:58;;;;;;;130.40;23.77;;;5.40;99.90;;;;;;4824588;29;20042;-74
2022/01/15 00:39:25;;;;;;;156.82;26.50;;;5.40;99.90;;;;;;4836628;29;20045;-75
2022/01/15 00:41:51;;;;;;;143.90;24.02;;;5.40;99.90;;;;;;4841013;29;20034;-75
2022/01/15 00:44:18;;;;;;;121.20;22.27;;;5.40;99.90;;;;;;4838518;29;20034;-74
2022/01/15 00:46:45;;;;;;;155.32;25.23;;;5.40;99.90;;;;;;4840454;29;20037;-75
2022/01/15 00:49:11;;;;;;;78.05;20.15;;;5.40;99.90;;;;;;4837852;29;20034;-74
2022/01/15 00:51:38;;;;;;;83.18;23.60;;;5.40;99.90;;;;;;4838626;29;20042;-75
2022/01/15 00:54:05;;;;;;;92.55;20.63;;;5.30;99.90;;;;;;4837781;29;20038;-75
2022/01/15 00:56:32;;;;;;;101.43;22.83;;;5.30;99.90;;;;;;4836591;29;20398;-75
2022/01/15 00:58:58;;;;;;;81.15;21.95;;;5.30;99.90;;;;;;4839582;29;20498;-75
2022/01/15 01:01:24;;;;;;;88.57;21.83;;;5.40;99.90;;;;;;4823508;29;20489;-76
2022/01/15 01:03:50;;;;;;;101.97;20.98;;;5.30;99.90;;;;;;4840531;29;20485;-75
2022/01/15 01:06:17;;;;;;;97.00;24.10;;;5.30;99.90;;;;;;4840133;29;20041;-76
2022/01/15 01:08:44;;;;;;;87.10;21.40;;;5.30;99.90;;;;;;4837470;29;20409;-75
2022/01/15 01:11:13;;;;;;;99.47;24.75;;;5.20;99.90;;;;;;4836609;29;20049;-75
2022/01/15 01:24:26;;;;;;;81.95;18.90;;;5.20;99.90;;;;;;4840984;29;20430;-77
2022/01/15 01:27:08;;;;;;;77.28;20.98;;;5.20;99.90;;;;;;4840545;29;20501;-77
2022/01/15 01:34:30;;;;;;;96.57;21.10;;;5.20;99.90;;;;;;4841690;29;20029;-77
2022/01/15 01:40:07;;;;;;;68.85;19.52;;;5.20;99.90;;;;;;4820443;29;20037;-77
2022/01/15 01:42:42;;;;;;;85.65;21.02;;;5.20;99.90;;;;;;4842500;29;20018;-77
2022/01/15 01:45:13;;;;;;;127.38;23.95;;;5.10;99.90;;;;;;4841819;29;20474;-77
2022/01/15 01:47:41;;;;;;;83.05;20.95;;;5.10;99.90;;;;;;4843582;29;20038;-77
2022/01/15 01:50:20;;;;;;;81.00;18.27;;;5.10;99.90;;;;;;4839324;29;20403;-77
2022/01/15 01:52:49;;;;;;;74.15;20.40;;;5.10;99.90;;;;;;4842349;29;20494;-77
2022/01/15 01:55:17;;;;;;;77.10;21.25;;;5.10;99.90;;;;;;4840006;29;20398;-77
2022/01/15 01:57:44;;;;;;;89.63;22.77;;;5.10;99.90;;;;;;4824540;29;20041;-77
2022/01/15 02:00:14;;;;;;;71.78;19.00;;;5.00;99.90;;;;;;4841609;29;20054;-77
2022/01/15 02:02:49;;;;;;;68.72;17.08;;;5.00;99.90;;;;;;4842988;29;20054;-76
2022/01/15 02:05:16;;;;;;;57.13;15.70;;;5.00;99.90;;;;;;4839756;29;20053;-77
2022/01/15 02:07:45;;;;;;;103.05;21.58;;;5.00;99.90;;;;;;4842209;29;20056;-80
2022/01/15 02:10:14;;;;;;;74.22;21.45;;;5.00;99.90;;;;;;4841258;29;20042;-81
2022/01/15 02:12:41;;;;;;;63.00;17.95;;;5.00;99.90;;;;;;4839734;29;20352;-80
2022/01/15 02:15:12;;;;;;;57.25;16.38;;;5.00;99.90;;;;;;4844016;29;20026;-80
2022/01/15 02:17:39;;;;;;;56.28;16.08;;;4.90;99.90;;;;;;4844867;29;20100;-80
2022/01/15 02:20:11;;;;;;;54.42;17.42;;;5.00;99.90;;;;;;4823961;29;20034;-80
2022/01/15 02:25:25;;;;;;;67.78;16.98;;;4.90;99.90;;;;;;4843911;29;20037;-80
2022/01/15 02:27:52;;;;;;;64.63;16.67;;;4.90;99.90;;;;;;4841824;29;20041;-80
2022/01/15 02:30:18;;;;;;;58.65;15.68;;;4.90;99.90;;;;;;4840836;29;20049;-80
2022/01/15 02:32:50;;;;;;;96.80;19.58;;;4.90;99.90;;;;;;4832855;29;20048;-80
2022/01/15 02:35:17;;;;;;;65.38;17.13;;;4.90;99.90;;;;;;4821818;29;20034;-80
2022/01/15 02:37:49;;;;;;;56.67;16.15;;;4.90;99.90;;;;;;4843297;29;20513;-81
2022/01/15 02:40:15;;;;;;;57.45;15.77;;;4.90;99.90;;;;;;4839520;29;20034;-80
2022/01/15 02:42:42;;;;;;;65.20;16.05;;;4.90;99.90;;;;;;4838381;29;20041;-80
2022/01/15 02:45:11;;;;;;;104.63;21.13;;;4.90;99.90;;;;;;4838236;29;20505;-80
2022/01/15 02:50:22;;;;;;;67.22;16.67;;;4.90;99.90;;;;;;4838245;29;20410;-80
2022/01/15 02:52:49;;;;;;;51.17;14.75;;;4.90;99.90;;;;;;4823049;29;20042;-80
2022/01/15 02:55:18;;;;;;;65.53;16.65;;;4.90;99.90;;;;;;4839076;29;20038;-80
2022/01/15 02:57:46;;;;;;;54.50;15.27;;;4.90;99.90;;;;;;4839175;29;20061;-80
2022/01/15 03:00:13;;;;;;;50.90;13.95;;;4.90;99.90;;;;;;4840584;29;20412;-80
2022/01/15 03:02:40;;;;;;;49.25;13.23;;;4.80;99.90;;;;;;4842506;29;20034;-80
2022/01/15 03:05:07;;;;;;;46.47;12.80;;;4.80;99.90;;;;;;4827206;29;20034;-80
2022/01/15 03:07:37;;;;;;;55.17;15.65;;;4.80;99.90;;;;;;4844069;29;20049;-81
2022/01/15 03:10:04;;;;;;;57.30;14.85;;;4.80;99.90;;;;;;4835093;29;20034;-80
2022/01/15 03:12:38;;;;;;;52.17;15.10;;;4.80;99.90;;;;;;4825984;29;20498;-80
2022/01/15 03:15:23;;;;;;;59.40;18.05;;;4.80;99.90;;;;;;4838703;29;20065;-80
2022/01/15 03:17:59;;;;;;;;;;;4.80;99.90;;;;;;4841127;29;20046;-80
2022/01/15 03:24:52;;;;;;;42.08;12.43;;;4.70;99.90;;;;;;4839695;29;20057;-80
2022/01/15 03:27:54;;;;;;;50.50;14.15;;;4.70;99.90;;;;;;4837508;29;20046;-80
2022/01/15 03:30:50;;;;;;;37.08;11.35;;;4.70;99.90;;;;;;4842832;29;20056;-80
2022/01/15 03:33:23;;;;;;;43.30;13.27;;;4.70;99.90;;;;;;4841940;29;20054;-80
2022/01/15 03:36:08;;;;;;;42.67;13.38;;;4.70;99.90;;;;;;4836833;29;20444;-80
2022/01/15 03:39:10;;;;;;;47.42;13.77;;;4.70;99.90;;;;;;4842364;29;20057;-80
2022/01/15 03:43:08;;;;;;;52.30;14.20;;;4.70;99.90;;;;;;4803529;29;20051;-81
2022/01/15 03:46:11;;;;;;;41.05;13.20;;;4.70;99.90;;;;;;4821301;29;20053;-81
2022/01/15 03:49:26;;;;;;;41.67;13.63;;;4.70;99.90;;;;;;4842783;29;20067;-80
2022/01/15 03:52:23;;;;;;;43.45;13.00;;;4.60;99.90;;;;;;4836695;29;20058;-80
2022/01/15 03:54:57;;;;;;;71.82;16.40;;;4.60;99.90;;;;;;4837899;29;20406;-81
2022/01/15 03:58:33;;;;;;;52.95;14.73;;;4.70;99.90;;;;;;4844101;29;20058;-80
2022/01/15 04:01:33;;;;;;;46.10;14.25;;;4.60;99.90;;;;;;4842529;29;20061;-81
2022/01/15 04:04:01;;;;;;;44.78;13.40;;;4.60;99.90;;;;;;4839916;29;20050;-81
2022/01/15 04:07:04;;;;;;;40.65;12.52;;;4.60;99.90;;;;;;4845160;29;20561;-81
2022/01/15 04:10:15;;;;;;;36.08;11.50;;;4.60;99.90;;;;;;4827518;29;20394;-81
2022/01/15 04:12:47;;;;;;;37.55;12.10;;;4.60;99.90;;;;;;4827266;29;20037;-81
2022/01/15 04:15:21;;;;;;;34.55;11.23;;;4.60;99.90;;;;;;4826684;29;20505;-81
2022/01/15 04:18:18;;;;;;;35.72;12.73;;;4.60;99.90;;;;;;4839584;29;20485;-81
2022/01/15 04:20:58;;;;;;;50.38;15.70;;;4.70;99.90;;;;;;4837929;29;20566;-81
2022/01/15 04:23:29;;;;;;;46.35;14.30;;;4.60;99.90;;;;;;4838659;29;20617;-81
2022/01/15 04:26:25;;;;;;;43.15;14.30;;;4.60;99.90;;;;;;4836556;29;20033;-81
2022/01/15 04:29:04;;;;;;;34.43;11.77;;;4.50;99.90;;;;;;4838912;29;20546;-81
2022/01/15 04:31:53;;;;;;;43.42;14.93;;;4.50;99.90;;;;;;4836458;29;20509;-81
2022/01/15 04:34:30;;;;;;;39.25;13.82;;;4.50;99.90;;;;;;4841489;29;20076;-81
2022/01/15 04:37:17;;;;;;;37.20;12.77;;;4.50;99.90;;;;;;4840780;29;20065;-81
2022/01/15 04:40:08;;;;;;;36.20;13.00;;;4.50;99.90;;;;;;4839460;29;20037;-81
2022/01/15 04:42:45;;;;;;;34.55;13.48;;;4.50;99.90;;;;;;4837124;29;20037;-81
2022/01/15 04:45:24;;;;;;;38.30;14.48;;;4.50;99.90;;;;;;4839308;29;20061;-80
2022/01/15 04:47:52;;;;;;;;;;;4.50;99.90;;;;;;4839647;29;20050;-81
2022/01/15 04:50:33;;;;;;;51.83;18.73;;;4.50;99.90;;;;;;4840574;29;19919;-81
2022/01/15 04:53:05;;;;;;;37.90;14.93;;;4.40;99.90;;;;;;4837811;29;20053;-81
2022/01/15 04:55:33;;;;;;;41.53;15.67;;;4.40;99.90;;;;;;4842060;29;20469;-81
2022/01/15 04:58:27;;;;;;;87.53;21.63;;;4.40;99.90;;;;;;4819801;29;20517;-81
2022/01/15 05:00:55;;;;;;;45.93;17.63;;;4.40;99.90;;;;;;4843622;29;20428;-81
2022/01/15 05:03:27;;;;;;;44.08;16.98;;;4.40;99.90;;;;;;4826060;29;20066;-81
2022/01/15 05:06:19;;;;;;;42.03;17.25;;;4.40;99.90;;;;;;4843687;29;20045;-80
2022/01/15 05:08:51;;;;;;;47.45;16.45;;;4.40;99.90;;;;;;4844585;29;20030;-81
2022/01/15 05:11:30;;;;;;;116.38;22.85;;;4.40;99.90;;;;;;4842049;29;20474;-82
2022/01/15 05:14:24;;;;;;;68.60;22.58;;;4.40;99.90;;;;;;4850151;29;20394;-79
2022/01/15 05:16:53;;;;;;;113.40;23.77;;;4.40;99.90;;;;;;4841553;29;20068;-80
2022/01/15 05:19:41;;;;;;;104.93;22.48;;;4.40;99.90;;;;;;4839473;29;20509;-80
2022/01/15 05:22:31;;;;;;;72.18;21.27;;;4.40;99.90;;;;;;4859446;29;20050;-81
2022/01/15 05:25:17;;;;;;;61.15;18.88;;;4.40;99.90;;;;;;4852138;29;20062;-81
2022/01/15 05:27:59;;;;;;;59.95;19.35;;;4.40;99.90;;;;;;4840925;29;20439;-81
2022/01/15 05:30:31;;;;;;;98.70;21.88;;;4.40;99.90;;;;;;4842430;29;20048;-80
2022/01/15 05:33:08;;;;;;;145.80;24.17;;;4.40;99.90;;;;;;4821572;29;20050;-79
2022/01/15 05:35:44;;;;;;;110.03;22.75;;;4.40;99.90;;;;;;4847762;29;20044;-80
2022/01/15 05:38:23;;;;;;;79.07;19.52;;;4.50;99.90;;;;;;4841710;29;20050;-80
2022/01/15 05:40:50;;;;;;;312.38;29.80;;;4.40;99.90;;;;;;4841243;29;20054;-80
2022/01/15 05:43:20;;;;;;;71.63;19.83;;;4.40;99.90;;;;;;4841126;29;20030;-80
2022/01/15 05:45:55;;;;;;;91.63;19.75;;;4.50;99.90;;;;;;4827828;29;20399;-80
2022/01/15 05:48:25;;;;;;;84.05;19.40;;;4.40;99.90;;;;;;4811195;29;20512;-81
2022/01/15 05:51:09;;;;;;;144.88;21.30;;;4.50;99.90;;;;;;4841613;29;20040;-80
2022/01/15 05:53:39;;;;;;;99.18;18.63;;;4.50;99.90;;;;;;4843491;29;20042;-80
2022/01/15 05:56:06;;;;;;;135.07;18.50;;;4.50;99.90;;;;;;4850224;29;20054;-80
2022/01/15 05:58:36;;;;;;;162.40;20.15;;;4.50;99.90;;;;;;4844389;29;20046;-80
2022/01/15 06:01:22;;;;;;;341.50;29.50;;;4.60;99.90;;;;;;4832053;29;20125;-81
2022/01/15 06:03:48;;;;;;;112.45;21.90;;;4.60;99.90;;;;;;4830316;29;20044;-81
2022/01/15 06:06:15;;;;;;;174.10;24.17;;;4.50;99.90;;;;;;4824195;29;20375;-80
2022/01/15 06:08:44;;;;;;;140.65;22.52;;;4.50;99.90;;;;;;4839369;29;20052;-80
2022/01/15 06:11:23;;;;;;;136.27;18.98;;;4.50;99.90;;;;;;4841823;29;20485;-80
2022/01/15 06:13:54;;;;;;;206.30;22.92;;;4.50;99.90;;;;;;4840851;29;20034;-80
2022/01/15 06:16:28;;;;;;;326.50;30.13;;;4.50;99.90;;;;;;4847483;29;20056;-81
2022/01/15 06:18:55;;;;;;;117.35;19.17;;;4.50;99.90;;;;;;4844326;29;20029;-80
2022/01/15 06:21:22;;;;;;;330.98;27.45;;;4.40;99.90;;;;;;4841076;29;20049;-80
2022/01/15 06:23:50;;;;;;;388.13;29.05;;;4.40;99.90;;;;;;4841049;29;20038;-80
2022/01/15 06:26:17;;;;;;;104.30;19.92;;;4.40;99.90;;;;;;4838641;29;20516;-80
2022/01/15 06:28:44;;;;;;;181.32;22.70;;;4.40;99.90;;;;;;4839903;29;20478;-81
2022/01/15 06:31:15;;;;;;;134.98;19.13;;;4.40;99.90;;;;;;4809054;29;20049;-80
2022/01/15 06:33:47;;;;;;;121.40;20.52;;;4.30;99.90;;;;;;4851030;29;20053;-81
2022/01/15 06:36:15;;;;;;;109.82;19.20;;;4.40;99.90;;;;;;4826610;29;20042;-81
2022/01/15 06:38:47;;;;;;;90.18;18.92;;;4.40;99.90;;;;;;4841677;29;20042;-81
2022/01/15 06:41:13;;;;;;;236.65;22.92;;;4.30;99.90;;;;;;4842494;29;20053;-81
2022/01/15 06:43:42;;;;;;;42.70;14.27;;;4.30;99.90;;;;;;4839310;29;20041;-81
2022/01/15 06:46:09;;;;;;;77.38;13.55;;;4.30;99.90;;;;;;4839273;29;20046;-81
2022/01/15 06:48:36;;;;;;;168.82;19.95;;;4.30;99.90;;;;;;4843141;29;20040;-81
2022/01/15 06:51:06;;;;;;;141.68;19.80;;;4.30;99.90;;;;;;4840717;29;20050;-81
2022/01/15 06:53:37;;;;;;;173.05;18.70;;;4.30;99.90;;;;;;4841264;29;20037;-81
2022/01/15 06:56:08;;;;;;;556.53;31.67;;;4.30;99.90;;;;;;4824422;29;20050;-81
2022/01/15 06:58:40;;;;;;;174.23;22.50;;;4.30;99.90;;;;;;4828002;29;20064;-80
2022/01/15 07:01:08;;;;;;;200.30;22.15;;;4.30;99.90;;;;;;4843410;29;20049;-81
2022/01/15 07:03:37;;;;;;;110.60;20.15;;;4.30;99.90;;;;;;4838525;29;20052;-80
2022/01/15 07:06:05;;;;;;;251.93;23.15;;;4.30;99.90;;;;;;4843541;29;20045;-81
2022/01/15 07:08:31;;;;;;;71.80;17.98;;;4.30;99.90;;;;;;4840079;29;20064;-81
2022/01/15 07:11:01;;;;;;;333.70;26.97;;;4.30;99.90;;;;;;4841768;29;20050;-80
2022/01/15 07:13:30;;;;;;;108.40;16.65;;;4.30;99.90;;;;;;4844123;29;20045;-80
2022/01/15 07:16:02;;;;;;;519.05;30.88;;;4.30;99.90;;;;;;4839485;29;20049;-80
2022/01/15 07:18:28;;;;;;;110.22;22.10;;;4.30;99.90;;;;;;4813101;29;20066;-80
2022/01/15 07:21:04;;;;;;;166.45;22.08;;;4.30;99.90;;;;;;4839330;29;20041;-80
2022/01/15 07:23:30;;;;;;;496.08;32.72;;;4.30;99.90;;;;;;4843722;29;20362;-84
2022/01/15 07:25:57;;;;;;;326.45;27.88;;;4.30;99.90;;;;;;4840213;29;20042;-83
2022/01/15 07:28:27;;;;;;;477.90;32.23;;;4.30;99.90;;;;;;4822655;29;20081;-84
2022/01/15 07:31:15;;;;;;;846.03;45.63;;;4.30;99.90;;;;;;4839286;29;20049;-85
2022/01/15 07:33:44;;;;;;;490.05;34.22;;;4.30;99.90;;;;;;4841757;29;20046;-84
2022/01/15 07:36:12;;;;;;;109.32;22.10;;;4.30;99.90;;;;;;4842168;29;20104;-83
2022/01/15 07:39:11;;;;;;;301.67;31.75;;;4.30;99.90;;;;;;4839383;29;20045;-84
2022/01/15 07:41:39;;;;;;;130.30;26.23;;;4.30;99.90;;;;;;4839009;29;20524;-84
2022/01/15 07:44:08;;;;;;;256.65;29.08;;;4.30;99.90;;;;;;4840135;29;20516;-80
2022/01/15 07:46:36;;;;;;;317.35;32.33;;;4.30;99.90;;;;;;4839058;29;20399;-80
2022/01/15 07:49:03;;;;;;;311.93;34.30;;;4.20;99.90;;;;;;4842451;29;20037;-81
2022/01/15 07:51:35;;;;;;;682.03;43.03;;;4.20;99.90;;;;;;4826458;29;20042;-81
2022/01/15 07:54:02;;;;;;;357.30;33.33;;;4.30;99.90;;;;;;4842836;29;20041;-81
2022/01/15 07:56:28;;;;;;;317.30;31.57;;;4.20;99.90;;;;;;4838471;29;21251;-81
2022/01/15 07:58:56;;;;;;;223.20;29.95;;;4.20;99.90;;;;;;4838703;29;20042;-81
2022/01/15 08:01:23;;;;;;;218.63;32.55;;;4.20;99.90;;;;;;4843591;29;20396;-81
2022/01/15 08:03:51;;;;;;;220.98;35.72;;;4.20;99.90;;;;;;4836757;29;20057;-81
2022/01/15 08:06:18;;;;;;;249.77;33.33;;;4.20;99.90;;;;;;4852109;29;20065;-81
2022/01/15 08:08:45;;;;;;;438.77;43.92;;;4.20;99.90;;;;;;4832369;29;20482;-81
2022/01/15 08:11:16;;;;;;;363.42;35.25;;;4.20;99.90;;;;;;4838508;29;20041;-82
2022/01/15 08:13:42;;;;;;;456.23;40.60;;;4.20;99.90;;;;;;4842718;29;20043;-81
2022/01/15 08:16:09;;;;;;;183.60;34.47;;;4.20;99.90;;;;;;4824803;29;20121;-82
2022/01/15 08:18:36;;;;;;;537.33;47.15;;;4.20;99.90;;;;;;4825646;29;20042;-80
2022/01/15 08:21:05;;;;;;;465.33;43.05;;;4.20;99.90;;;;;;4823064;29;20038;-81
2022/01/15 08:23:45;;;;;;;;;;;;;;;;;;;;;
2022/01/15 08:26:36;;;;;;;244.63;35.15;;;4.20;99.90;;;;;;4837039;29;20376;-81
2022/01/15 08:29:28;;;;;;;228.10;38.30;;;4.20;99.90;;;;;;4841404;29;20504;-83
2022/01/15 08:33:24;;;;;;;;;;;;;;;;;;;;;
2022/01/15 08:43:31;;;;;;;210.83;34.23;;;4.20;99.90;;;;;;4817360;29;20043;-84
2022/01/15 08:46:20;;;;;;;790.42;58.20;;;4.30;99.90;;;;;;4782526;29;20518;-85
2022/01/15 08:48:58;;;;;;;708.60;59.58;;;4.30;99.90;;;;;;4790978;29;20054;-86
2022/01/15 08:51:45;;;;;;;;;;;;;;;;;;;;;
2022/01/15 08:55:03;;;;;;;582.65;52.38;;;4.30;99.90;;;;;;4840718;29;20580;-85
2022/01/15 08:58:19;;;;;;;614.95;60.00;;;4.30;99.90;;;;;;4763504;30;20054;-85
2022/01/15 09:01:22;;;;;;;577.13;53.22;;;4.30;99.90;;;;;;4766542;29;20051;-84
2022/01/15 09:07:16;;;;;;;818.25;61.47;;;4.30;99.90;;;;;;4781590;29;20047;-84
2022/01/15 09:09:56;;;;;;;552.70;54.38;;;4.40;99.90;;;;;;4768813;29;20074;-85
2022/01/15 09:12:34;;;;;;;269.55;41.80;;;4.40;99.90;;;;;;4751329;30;20063;-85
2022/01/15 09:15:37;;;;;;;206.68;35.58;;;4.40;99.90;;;;;;4783420;29;20071;-85
2022/01/15 09:18:29;;;;;;;373.88;40.92;;;4.50;99.90;;;;;;4743560;30;20062;-85
2022/01/15 09:21:41;;;;;;;212.25;38.25;;;4.50;99.90;;;;;;4769503;29;20055;-83
2022/01/15 09:24:17;;;;;;;542.22;46.38;;;4.60;99.90;;;;;;4777286;29;20192;-84
2022/01/15 09:33:47;;;;;;;547.28;46.03;;;4.60;99.90;;;;;;4823698;29;20062;-85
2022/01/15 09:36:26;;;;;;;489.52;43.83;;;4.60;99.90;;;;;;4838415;29;20036;-89
2022/01/15 09:38:58;;;;;;;508.42;43.40;;;4.60;99.90;;;;;;4840346;29;20060;-87
2022/01/15 09:41:55;;;;;;;356.65;41.03;;;4.50;99.90;;;;;;4841336;29;20041;-84
2022/01/15 09:44:38;;;;;;;287.15;37.70;;;4.60;99.90;;;;;;4837759;29;20516;-84
2022/01/15 09:47:10;;;;;;;163.15;30.08;;;4.60;99.90;;;;;;4824996;29;20050;-84
2022/01/15 09:49:52;;;;;;;370.85;37.90;;;4.60;99.90;;;;;;4827564;29;20398;-84
2022/01/15 09:52:40;;;;;;;182.25;31.95;;;4.60;99.90;;;;;;4840009;29;20370;-83
2022/01/15 09:55:49;;;;;;;712.42;53.58;;;4.60;99.90;;;;;;4825698;29;20098;-84
2022/01/15 09:59:02;;;;;;;445.95;40.47;;;4.60;99.90;;;;;;4835490;29;20057;-84
2022/01/15 10:01:36;;;;;;;585.45;43.80;;;4.70;99.90;;;;;;4844221;29;20632;-83
2022/01/15 10:04:06;;;;;;;250.80;31.83;;;4.70;99.90;;;;;;4844486;29;20503;-83
2022/01/15 10:07:27;;;;;;;150.57;31.30;;;4.60;99.90;;;;;;4840430;29;20041;-83
2022/01/15 10:10:25;;;;;;;389.38;41.88;;;4.70;99.90;;;;;;4829279;29;20066;-82
2022/01/15 10:13:35;;;;;;;214.17;27.73;;;4.70;99.90;;;;;;4841154;29;20046;-82
2022/01/15 10:16:35;;;;;;;411.70;39.38;;;4.70;99.90;;;;;;4793117;29;20042;-82
2022/01/15 10:19:32;;;;;;;331.80;36.80;;;4.80;99.90;;;;;;4770980;29;20050;-82
2022/01/15 10:22:44;;;;;;;544.80;46.85;;;4.80;99.90;;;;;;4831584;29;20057;-83
2022/01/15 10:25:23;;;;;;;177.80;33.15;;;4.80;99.90;;;;;;4841347;29;20045;-83
2022/01/15 10:27:55;;;;;;;104.47;27.98;;;4.80;99.90;;;;;;4855443;29;20045;-86
2022/01/15 10:30:58;;;;;;;369.07;38.33;;;4.80;99.90;;;;;;4806424;29;20077;-83
2022/01/15 10:33:33;;;;;;;603.42;45.83;;;4.80;99.90;;;;;;4839220;29;20692;-83
2022/01/15 10:36:27;;;;;;;241.70;30.98;;;4.70;99.90;;;;;;4837180;29;20517;-83
2022/01/15 10:39:13;;;;;;;213.45;33.25;;;4.70;99.90;;;;;;4839211;29;20387;-83
2022/01/15 10:41:50;;;;;;;339.50;39.95;;;4.80;99.90;;;;;;4838735;29;20038;-83
2022/01/15 10:45:29;;;;;;;306.05;37.70;;;4.80;99.90;;;;;;4844987;29;20048;-83
2022/01/15 10:48:34;;;;;;;181.98;28.75;;;4.80;99.90;;;;;;4840417;29;20074;-83
2022/01/15 10:51:25;;;;;;;633.85;50.22;;;4.80;99.90;;;;;;4840176;29;20482;-83
2022/01/15 10:54:05;;;;;;;200.88;29.65;;;4.80;99.90;;;;;;4824069;29;20049;-83
2022/01/15 10:56:36;;;;;;;215.98;30.60;;;4.80;99.90;;;;;;4838974;29;20049;-83
2022/01/15 11:03:01;;;;;;;195.90;31.50;;;4.80;99.90;;;;;;4827016;29;20042;-83
2022/01/15 11:06:05;;;;;;;521.47;44.30;;;4.80;99.90;;;;;;4826061;29;20057;-83
2022/01/15 11:08:50;;;;;;;416.25;43.70;;;4.80;99.90;;;;;;4839046;29;20042;-83
2022/01/15 11:11:32;;;;;;;524.95;45.00;;;4.80;99.90;;;;;;4826664;29;20058;-83
2022/01/15 11:14:39;;;;;;;289.10;37.90;;;4.80;99.90;;;;;;4824520;29;20405;-83
2022/01/15 11:17:08;;;;;;;540.17;47.28;;;4.70;99.90;;;;;;4815556;29;20789;-84
2022/01/15 11:19:50;;;;;;;157.27;33.78;;;4.70;99.90;;;;;;4841838;29;20045;-84
2022/01/15 11:22:42;;;;;;;487.27;45.78;;;4.70;99.90;;;;;;4838034;29;20042;-84
2022/01/15 11:25:20;;;;;;;157.00;31.92;;;4.70;99.90;;;;;;4841188;29;20509;-84
2022/01/15 11:27:48;;;;;;;221.95;33.70;;;4.80;99.90;;;;;;4839250;29;20030;-84
2022/01/15 11:30:37;;;;;;;156.48;29.83;;;4.80;99.90;;;;;;4827963;29;20509;-85
2022/01/15 11:33:04;;;;;;;314.58;36.60;;;4.80;99.90;;;;;;4840103;29;20034;-83
2022/01/15 11:35:46;;;;;;;182.70;34.85;;;4.90;99.90;;;;;;4837361;29;20041;-84
2022/01/15 11:38:46;;;;;;;191.95;35.97;;;4.90;99.90;;;;;;4838201;29;20402;-85
2022/01/15 11:41:43;;;;;;;224.95;36.38;;;4.80;99.90;;;;;;4845069;29;20030;-84
2022/01/15 11:44:28;;;;;;;240.50;35.80;;;4.90;99.90;;;;;;4838898;29;20045;-82
2022/01/15 11:47:20;;;;;;;183.60;32.47;;;4.80;99.90;;;;;;4839825;29;20042;-82
2022/01/15 11:49:49;;;;;;;404.60;40.60;;;4.90;99.90;;;;;;4842202;29;20048;-83
2022/01/15 11:52:19;;;;;;;217.07;34.13;;;4.90;99.90;;;;;;4840112;29;20049;-83
2022/01/15 11:54:51;;;;;;;327.88;36.45;;;4.90;99.90;;;;;;4832417;29;20053;-83
2022/01/15 11:57:23;;;;;;;143.60;31.27;;;4.90;99.90;;;;;;4822665;29;20053;-83
2022/01/15 12:00:01;;;;;;;152.43;29.98;;;4.90;99.90;;;;;;4816553;29;20061;-83
2022/01/15 12:02:38;;;;;;;223.63;32.20;;;4.90;99.90;;;;;;4842185;29;20068;-84
2022/01/15 12:05:17;;;;;;;205.25;32.08;;;4.90;99.90;;;;;;4838173;29;20044;-84
2022/01/15 12:07:50;;;;;;;302.05;35.33;;;5.00;99.90;;;;;;4837109;29;20477;-84
2022/01/15 12:10:18;;;;;;;259.75;33.65;;;5.00;99.90;;;;;;4823097;29;20603;-83
2022/01/15 12:12:51;;;;;;;674.00;48.25;;;4.90;99.90;;;;;;4839674;29;20116;-83
2022/01/15 12:15:28;;;;;;;272.67;34.72;;;5.00;99.90;;;;;;4835891;29;20065;-84
2022/01/15 12:18:02;;;;;;;157.27;30.27;;;4.90;99.90;;;;;;4838721;29;20053;-83
2022/01/15 12:20:36;;;;;;;286.30;31.70;;;4.90;99.90;;;;;;4823036;29;20042;-83
2022/01/15 12:23:32;;;;;;;157.05;29.98;;;4.80;99.90;;;;;;4840578;29;20038;-83
2022/01/15 12:26:08;;;;;;;182.02;27.80;;;4.80;99.90;;;;;;4836309;29;20042;-84
2022/01/15 12:28:38;;;;;;;133.82;28.80;;;4.90;99.90;;;;;;4841819;29;20046;-83
2022/01/15 12:31:05;;;;;;;311.80;33.92;;;4.90;99.90;;;;;;4821842;29;20058;-83
2022/01/15 12:33:34;;;;;;;195.63;29.15;;;4.80;99.90;;;;;;4839013;29;20052;-83
2022/01/15 12:36:01;;;;;;;314.77;34.70;;;4.80;99.90;;;;;;4836338;29;20045;-83
2022/01/15 12:38:31;;;;;;;284.70;33.17;;;4.80;99.90;;;;;;4837840;29;20046;-83
2022/01/15 12:41:11;;;;;;;197.70;27.38;;;4.80;99.90;;;;;;4838514;29;20490;-83
2022/01/15 12:43:44;;;;;;;385.23;33.65;;;4.80;99.90;;;;;;4838455;29;20034;-84
2022/01/15 12:46:15;;;;;;;282.03;31.03;;;4.80;99.90;;;;;;4838585;29;20038;-83
2022/01/15 12:48:50;;;;;;;273.90;34.03;;;4.80;99.90;;;;;;4838269;29;20037;-83
2022/01/15 12:51:20;;;;;;;188.07;29.70;;;4.70;99.90;;;;;;4826142;29;20050;-84
2022/01/15 12:53:57;;;;;;;410.90;39.38;;;4.50;99.90;;;;;;4836718;29;20048;-84
2022/01/15 12:56:29;;;;;;;129.23;30.45;;;4.50;99.90;;;;;;4839723;29;20042;-83
2022/01/15 12:58:58;;;;;;;352.00;35.80;;;4.30;99.90;;;;;;4838820;29;20417;-83
2022/01/15 13:01:30;;;;;;;248.95;32.17;;;4.30;99.90;;;;;;4839733;29;20038;-83
2022/01/15 13:04:00;;;;;;;168.30;31.20;;;4.20;99.90;;;;;;4825949;29;20417;-83
2022/01/15 13:06:26;;;;;;;108.53;27.45;;;4.30;99.90;;;;;;4836544;29;20026;-83
2022/01/15 13:08:59;;;;;;;325.48;34.10;;;4.30;99.90;;;;;;4824581;29;20045;-82
2022/01/15 13:11:32;;;;;;;152.63;30.75;;;4.30;99.90;;;;;;4838659;29;20061;-83
2022/01/15 13:14:07;;;;;;;163.27;33.00;;;4.30;99.90;;;;;;4838386;29;20053;-82
2022/01/15 13:16:36;;;;;;;299.83;37.55;;;4.40;99.90;;;;;;4828340;29;20080;-83
2022/01/15 13:19:46;;;;;;;131.98;30.55;;;4.40;99.90;;;;;;4839701;29;20041;-83
2022/01/15 13:22:32;;;;;;;279.92;35.05;;;4.30;99.90;;;;;;4839724;29;20045;-82
2022/01/15 13:25:08;;;;;;;615.88;47.85;;;4.30;99.90;;;;;;4843725;29;20030;-81
2022/01/15 13:27:34;;;;;;;151.90;33.40;;;4.20;99.90;;;;;;4831753;29;20038;-81
2022/01/15 13:30:04;;;;;;;392.23;44.25;;;4.20;99.90;;;;;;4839009;29;20611;-81
2022/01/15 13:32:37;;;;;;;354.05;42.42;;;4.10;99.90;;;;;;4825047;29;20421;-82
2022/01/15 13:35:16;;;;;;;291.27;39.67;;;4.00;99.90;;;;;;4840510;29;20394;-82
2022/01/15 13:38:04;;;;;;;259.27;36.03;;;4.00;99.90;;;;;;4842196;29;20149;-82
2022/01/15 13:40:47;;;;;;;191.75;36.30;;;4.00;99.90;;;;;;4847421;29;20050;-82
2022/01/15 13:43:34;;;;;;;377.20;42.57;;;4.00;99.90;;;;;;4825168;29;20057;-82
2022/01/15 13:46:27;;;;;;;173.57;40.83;;;4.00;99.90;;;;;;4852128;29;20488;-82
2022/01/15 13:48:59;;;;;;;;;;;4.00;99.90;;;;;;4843801;29;20045;-82
2022/01/15 13:54:37;;;;;;;120.80;32.25;;;4.00;99.90;;;;;;4821741;29;20037;-82
2022/01/15 13:57:44;;;;;;;201.93;36.50;;;4.00;99.90;;;;;;4839723;29;20041;-82
2022/01/15 14:00:28;;;;;;;209.90;34.10;;;3.90;99.90;;;;;;4812466;29;20069;-83
2022/01/15 14:03:05;;;;;;;232.23;35.17;;;4.00;99.90;;;;;;4841576;29;20074;-82
2022/01/15 14:06:02;;;;;;;417.23;42.22;;;3.90;99.90;;;;;;4838771;29;20524;-82
2022/01/15 14:08:32;;;;;;;416.75;43.83;;;3.90;99.90;;;;;;4806766;29;20049;-82
2022/01/15 14:11:00;;;;;;;259.10;37.93;;;3.90;99.90;;;;;;4838534;29;20410;-82
2022/01/15 14:13:30;;;;;;;257.10;39.35;;;3.90;99.90;;;;;;4839010;29;20038;-82
2022/01/15 14:16:28;;;;;;;124.77;34.37;;;3.90;99.90;;;;;;4828004;29;20045;-82
2022/01/15 14:19:24;;;;;;;191.15;35.97;;;3.90;99.90;;;;;;4836114;29;20078;-82
2022/01/15 14:21:54;;;;;;;188.95;34.92;;;3.90;99.90;;;;;;4844190;29;20278;-82
2022/01/15 14:24:30;;;;;;;124.95;30.10;;;3.90;99.90;;;;;;4824189;29;20395;-83